createdAt,value
2017-05-19T00:00:08.415Z,6.65
2017-05-19T00:02:36.068Z,5.38
2017-05-19T00:05:03.709Z,6.02
2017-05-19T00:07:31.653Z,6.00
2017-05-19T00:09:59.294Z,6.53
2017-05-19T00:12:26.945Z,6.23
2017-05-19T00:14:54.896Z,6.13
2017-05-19T00:17:22.557Z,5.72
2017-05-19T00:19:50.212Z,5.47
2017-05-19T00:22:19.685Z,4.75
2017-05-19T00:24:48.098Z,6.45
2017-05-19T00:27:16.512Z,5.60
2017-05-19T00:29:45.285Z,5.95
2017-05-19T00:32:12.946Z,6.33
2017-05-19T00:34:41.363Z,6.20
2017-05-19T00:37:09.350Z,5.72
2017-05-19T00:39:36.993Z,5.43
2017-05-19T00:42:04.633Z,6.70
2017-05-19T00:44:33.332Z,5.82
2017-05-19T00:47:00.976Z,6.17
2017-05-19T00:49:28.631Z,5.93
2017-05-19T00:51:56.602Z,6.70
2017-05-19T00:54:24.246Z,6.27
2017-05-19T00:56:52.686Z,5.95
2017-05-19T00:59:21.504Z,4.90
2017-05-19T01:01:49.927Z,6.18
2017-05-19T01:04:17.572Z,5.53
2017-05-19T01:06:45.617Z,5.82
2017-05-19T01:09:13.261Z,6.50
2017-05-19T01:11:40.899Z,5.12
2017-05-19T01:14:08.961Z,6.02
2017-05-19T01:16:37.393Z,5.25
2017-05-19T01:19:05.041Z,6.45
2017-05-19T01:21:33.763Z,5.55
2017-05-19T01:24:01.410Z,6.23
2017-05-19T01:26:29.054Z,6.22
2017-05-19T01:28:58.529Z,6.33
2017-05-19T01:31:26.944Z,6.37
2017-05-19T01:33:54.593Z,11.43
2017-05-19T01:36:23.468Z,5.98
2017-05-19T01:38:51.889Z,5.47
2017-05-19T01:41:20.361Z,7.12
2017-05-19T01:43:48.405Z,10.47
2017-05-19T01:46:16.809Z,5.30
2017-05-19T01:48:45.242Z,6.32
2017-05-19T01:51:13.299Z,5.03
2017-05-19T01:53:40.945Z,5.75
2017-05-19T01:56:09.468Z,5.30
2017-05-19T01:58:38.176Z,6.37
2017-05-19T02:01:05.833Z,6.00
2017-05-19T02:03:33.471Z,6.00
2017-05-19T02:06:01.441Z,5.90
2017-05-19T02:08:29.094Z,6.00
2017-05-19T02:10:56.739Z,5.20
2017-05-19T02:13:24.783Z,5.72
2017-05-19T02:15:52.423Z,5.15
2017-05-19T02:18:20.076Z,6.75
2017-05-19T02:20:48.773Z,5.58
2017-05-19T02:23:17.181Z,6.37
2017-05-19T02:25:45.593Z,7.57
2017-05-19T02:28:14.441Z,5.65
2017-05-19T02:30:42.846Z,6.45
2017-05-19T02:33:11.271Z,5.13
2017-05-19T02:35:39.310Z,5.40
2017-05-19T02:38:07.716Z,5.97
2017-05-19T02:40:35.360Z,5.10
2017-05-19T02:43:03.391Z,6.82
2017-05-19T02:45:31.031Z,7.10
2017-05-19T02:47:59.542Z,5.97
2017-05-19T02:50:27.494Z,6.00
2017-05-19T02:52:55.906Z,5.70
2017-05-19T02:55:24.318Z,6.27
2017-05-19T02:57:52.346Z,6.07
2017-05-19T03:00:20.040Z,6.35
2017-05-19T03:02:47.693Z,7.32
2017-05-19T03:05:16.505Z,6.10
2017-05-19T03:07:44.148Z,5.48
2017-05-19T03:10:12.569Z,5.80
2017-05-19T03:12:41.380Z,5.88
2017-05-19T03:15:09.788Z,5.72
2017-05-19T03:17:37.426Z,6.15
2017-05-19T03:20:05.085Z,6.23
2017-05-19T03:22:32.726Z,6.45
2017-05-19T03:25:01.897Z,6.27
2017-05-19T03:27:29.545Z,5.72
2017-05-19T03:29:57.220Z,6.52
2017-05-19T03:32:25.627Z,6.53
2017-05-19T03:34:53.306Z,6.22
2017-05-19T03:37:21.718Z,6.10
2017-05-19T03:39:49.385Z,6.72
2017-05-19T03:42:17.037Z,7.03
2017-05-19T03:44:44.989Z,5.65
2017-05-19T03:47:13.400Z,7.05
2017-05-19T03:49:41.811Z,7.15
2017-05-19T03:52:09.473Z,6.08
2017-05-19T03:54:37.113Z,6.67
2017-05-19T03:57:05.161Z,6.62
2017-05-19T03:59:32.830Z,6.50
2017-05-19T04:02:01.244Z,10.05
2017-05-19T04:04:29.685Z,6.97
2017-05-19T04:06:58.132Z,7.85
2017-05-19T04:09:25.794Z,8.03
2017-05-19T04:11:53.444Z,7.18
2017-05-19T04:14:21.132Z,6.83
2017-05-19T04:16:48.769Z,7.12
2017-05-19T04:19:16.413Z,9.35
2017-05-19T04:21:45.225Z,8.62
2017-05-19T04:24:12.883Z,7.50
2017-05-19T04:26:41.305Z,8.12
2017-05-19T04:29:09.138Z,6.87
2017-05-19T04:31:36.789Z,7.52
2017-05-19T04:34:04.462Z,8.07
2017-05-19T04:36:32.873Z,7.93
2017-05-19T04:39:00.544Z,6.23
2017-05-19T04:41:28.192Z,7.07
2017-05-19T04:43:57.012Z,5.82
2017-05-19T04:46:24.791Z,5.68
2017-05-19T04:48:52.440Z,6.35
2017-05-19T04:51:20.869Z,6.63
2017-05-19T04:53:48.520Z,6.92
2017-05-19T04:56:16.199Z,6.10
2017-05-19T04:58:44.618Z,8.07
2017-05-19T05:01:13.057Z,6.10
2017-05-19T05:03:40.705Z,6.55
2017-05-19T05:06:09.097Z,6.38
2017-05-19T05:08:36.745Z,6.08
2017-05-19T05:11:04.635Z,6.22
2017-05-19T05:13:32.278Z,5.75
2017-05-19T05:16:00.720Z,5.98
2017-05-19T05:18:29.129Z,6.52
2017-05-19T05:20:57.609Z,6.23
2017-05-19T05:23:25.279Z,6.33
2017-05-19T05:25:52.950Z,5.05
2017-05-19T05:28:20.603Z,6.03
2017-05-19T05:30:48.273Z,6.80
2017-05-19T05:33:16.689Z,8.40
2017-05-19T05:35:45.123Z,6.07
2017-05-19T05:38:13.561Z,5.32
2017-05-19T05:40:42.411Z,6.46
2017-05-19T05:43:10.407Z,6.36
2017-05-19T05:45:38.036Z,8.94
2017-05-19T05:48:05.705Z,5.82
2017-05-19T05:50:34.137Z,6.38
2017-05-19T05:53:01.773Z,6.70
2017-05-19T05:55:29.401Z,5.74
2017-05-19T05:57:57.046Z,6.24
2017-05-19T06:00:24.666Z,6.26
2017-05-19T06:02:53.098Z,6.02
2017-05-19T06:05:20.741Z,5.92
2017-05-19T06:07:48.764Z,5.80
2017-05-19T06:10:17.137Z,5.90
2017-05-19T06:12:44.764Z,4.94
2017-05-19T06:15:12.422Z,5.94
2017-05-19T06:17:40.035Z,5.80
2017-05-19T06:20:08.445Z,6.30
2017-05-19T06:22:36.838Z,5.56
2017-05-19T06:25:04.855Z,5.92
2017-05-19T06:27:33.235Z,5.20
2017-05-19T06:30:00.876Z,6.42
2017-05-19T06:32:28.520Z,5.92
2017-05-19T06:34:56.134Z,5.54
2017-05-19T06:37:23.784Z,4.70
2017-05-19T06:39:51.514Z,6.18
2017-05-19T06:42:20.220Z,7.30
2017-05-19T06:44:47.846Z,5.70
2017-05-19T06:47:16.231Z,5.40
2017-05-19T06:49:44.690Z,6.12
2017-05-19T06:52:12.322Z,6.06
2017-05-19T06:54:41.112Z,6.02
2017-05-19T06:57:08.730Z,7.28
2017-05-19T06:59:37.115Z,5.62
2017-05-19T07:02:05.549Z,5.18
2017-05-19T07:04:33.168Z,5.80
2017-05-19T07:07:00.810Z,5.88
2017-05-19T07:09:28.428Z,5.66
2017-05-19T07:11:56.073Z,6.30
2017-05-19T07:14:24.512Z,6.22
2017-05-19T07:16:52.933Z,5.62
2017-05-19T07:19:20.541Z,6.00
2017-05-19T07:21:48.196Z,6.70
2017-05-19T07:24:15.814Z,6.00
2017-05-19T07:26:44.534Z,5.40
2017-05-19T07:29:12.154Z,6.04
2017-05-19T07:31:40.545Z,6.24
2017-05-19T07:34:09.228Z,6.12
2017-05-19T07:36:37.608Z,6.02
2017-05-19T07:39:05.992Z,6.44
2017-05-19T07:41:34.405Z,5.46
2017-05-19T07:44:02.024Z,6.52
2017-05-19T07:46:29.987Z,5.36
2017-05-19T07:48:57.593Z,5.76
2017-05-19T07:51:25.985Z,6.10
2017-05-19T07:53:53.626Z,6.22
2017-05-19T07:56:21.241Z,6.10
2017-05-19T07:58:49.662Z,5.28
2017-05-19T08:01:17.276Z,5.94
2017-05-19T08:03:45.700Z,4.40
2017-05-19T08:06:14.081Z,5.38
2017-05-19T08:08:42.092Z,5.72
2017-05-19T08:11:09.721Z,5.78
2017-05-19T08:13:37.341Z,5.68
2017-05-19T08:16:05.749Z,5.40
2017-05-19T08:18:33.360Z,5.86
2017-05-19T08:21:02.150Z,6.50
2017-05-19T08:23:29.778Z,5.08
2017-05-19T08:25:58.174Z,9.14
2017-05-19T08:28:25.808Z,5.96
2017-05-19T08:30:53.432Z,6.04
2017-05-19T08:33:22.164Z,5.88
2017-05-19T08:35:50.564Z,5.46
2017-05-19T08:38:18.946Z,5.56
2017-05-19T08:40:46.602Z,5.58
2017-05-19T08:43:14.999Z,6.14
2017-05-19T08:45:42.654Z,6.46
2017-05-19T08:48:11.042Z,5.72
2017-05-19T08:50:39.719Z,5.80
2017-05-19T08:53:08.113Z,5.68
2017-05-19T08:55:35.732Z,6.14
2017-05-19T08:58:04.144Z,5.70
2017-05-19T09:00:31.764Z,5.42
2017-05-19T09:02:59.411Z,9.84
2017-05-19T09:05:27.054Z,4.88
2017-05-19T09:07:55.475Z,6.00
2017-05-19T09:10:23.082Z,5.06
2017-05-19T09:12:51.034Z,6.10
2017-05-19T09:15:19.416Z,6.30
2017-05-19T09:17:47.804Z,5.74
2017-05-19T09:20:15.441Z,6.32
2017-05-19T09:22:43.065Z,4.96
2017-05-19T09:25:10.707Z,6.76
2017-05-19T09:27:39.093Z,5.82
2017-05-19T09:30:07.150Z,6.58
2017-05-19T09:32:34.835Z,5.84
2017-05-19T09:35:03.226Z,6.30
2017-05-19T09:37:30.877Z,5.84
2017-05-19T09:39:58.505Z,5.90
2017-05-19T09:42:26.209Z,6.24
2017-05-19T09:44:53.831Z,6.10
2017-05-19T09:47:22.515Z,6.42
2017-05-19T09:49:50.141Z,6.20
2017-05-19T09:52:17.756Z,5.52
2017-05-19T09:54:45.392Z,6.66
2017-05-19T09:57:13.783Z,6.32
2017-05-19T09:59:41.738Z,5.34
2017-05-19T10:02:09.364Z,5.84
2017-05-19T10:04:37.749Z,6.38
2017-05-19T10:07:06.152Z,7.34
2017-05-19T10:09:33.775Z,6.04
2017-05-19T10:12:01.416Z,6.38
2017-05-19T10:14:29.029Z,6.14
2017-05-19T10:16:57.441Z,5.82
2017-05-19T10:19:25.080Z,5.88
2017-05-19T10:21:53.120Z,5.54
2017-05-19T10:24:21.515Z,5.98
2017-05-19T10:26:49.134Z,4.94
2017-05-19T10:29:16.772Z,5.64
2017-05-19T10:31:44.401Z,5.72
2017-05-19T10:34:12.041Z,5.62
2017-05-19T10:36:40.460Z,5.16
2017-05-19T10:39:08.098Z,5.30
2017-05-19T10:41:35.729Z,6.34
2017-05-19T10:44:03.666Z,5.72
2017-05-19T10:46:31.290Z,5.94
2017-05-19T10:48:59.687Z,5.30
2017-05-19T10:51:27.332Z,5.00
2017-05-19T10:53:54.956Z,6.12
2017-05-19T10:56:23.647Z,5.90
2017-05-19T10:58:52.034Z,6.26
2017-05-19T11:01:20.453Z,5.38
2017-05-19T11:03:48.864Z,5.98
2017-05-19T11:06:16.484Z,6.24
2017-05-19T11:08:44.128Z,5.78
2017-05-19T11:11:12.519Z,5.74
2017-05-19T11:13:40.453Z,5.46
2017-05-19T11:16:08.845Z,5.10
2017-05-19T11:18:37.243Z,5.40
2017-05-19T11:21:06.041Z,5.12
2017-05-19T11:23:34.449Z,4.88
2017-05-19T11:26:02.884Z,5.70
2017-05-19T11:28:30.576Z,5.30
2017-05-19T11:30:59.693Z,5.16
2017-05-19T11:33:27.683Z,5.64
2017-05-19T11:35:55.312Z,5.48
2017-05-19T11:38:22.968Z,4.66
2017-05-19T11:40:51.383Z,4.50
2017-05-19T11:43:19.001Z,4.60
2017-05-19T11:45:46.643Z,7.78
2017-05-19T11:48:14.288Z,6.70
2017-05-19T11:50:42.693Z,5.16
2017-05-19T11:53:11.078Z,4.44
2017-05-19T11:55:38.709Z,5.20
2017-05-19T11:58:07.094Z,4.80
2017-05-19T12:00:35.057Z,5.60
2017-05-19T12:03:02.720Z,4.80
2017-05-19T12:05:30.358Z,4.88
2017-05-19T12:07:58.005Z,5.96
2017-05-19T12:10:25.620Z,5.94
2017-05-19T12:12:53.626Z,4.90
2017-05-19T12:15:21.245Z,4.72
2017-05-19T12:17:48.907Z,4.94
2017-05-19T12:20:17.315Z,5.74
2017-05-19T12:22:45.737Z,5.06
2017-05-19T12:25:13.352Z,5.24
2017-05-19T12:27:40.996Z,4.64
2017-05-19T12:30:09.376Z,5.24
2017-05-19T12:32:37.031Z,5.40
2017-05-19T12:35:04.644Z,5.78
2017-05-19T12:37:32.336Z,5.54
2017-05-19T12:39:59.978Z,5.54
2017-05-19T12:42:27.891Z,5.02
2017-05-19T12:44:56.272Z,5.88
2017-05-19T12:47:23.898Z,5.22
2017-05-19T12:49:52.313Z,5.32
2017-05-19T12:52:19.947Z,5.24
2017-05-19T12:54:47.921Z,5.14
2017-05-19T12:57:15.546Z,5.52
2017-05-19T12:59:43.176Z,6.38
2017-05-19T13:02:11.711Z,5.24
2017-05-19T13:04:40.097Z,5.12
2017-05-19T13:07:07.747Z,5.50
2017-05-19T13:09:35.369Z,5.84
2017-05-19T13:12:03.800Z,6.06
2017-05-19T13:14:31.432Z,5.48
2017-05-19T13:16:59.078Z,5.36
2017-05-19T13:19:26.824Z,5.14
2017-05-19T13:21:54.613Z,5.18
2017-05-19T13:24:22.237Z,5.68
2017-05-19T13:26:50.692Z,5.48
2017-05-19T13:29:18.322Z,5.42
2017-05-19T13:31:46.673Z,5.16
2017-05-19T13:34:15.310Z,5.14
2017-05-19T13:36:43.694Z,5.06
2017-05-19T13:39:13.232Z,5.26
2017-05-19T13:41:40.999Z,5.40
2017-05-19T13:44:08.999Z,5.60
2017-05-19T13:46:36.635Z,5.66
2017-05-19T13:49:04.341Z,5.32
2017-05-19T13:51:33.485Z,5.60
2017-05-19T13:54:01.100Z,5.48
2017-05-19T13:56:29.838Z,5.46
2017-05-19T13:58:57.496Z,5.52
2017-05-19T14:01:25.794Z,5.62
2017-05-19T14:03:54.201Z,5.98
2017-05-19T14:06:24.331Z,6.24
2017-05-19T14:08:52.850Z,5.50
2017-05-19T14:11:20.466Z,6.04
2017-05-19T14:13:48.885Z,5.22
2017-05-19T14:16:16.520Z,5.12
2017-05-19T14:18:44.150Z,4.92
2017-05-19T14:21:12.099Z,6.68
2017-05-19T14:23:39.707Z,5.48
2017-05-19T14:26:08.556Z,4.70
2017-05-19T14:28:36.213Z,5.40
2017-05-19T14:31:04.609Z,5.32
2017-05-19T14:33:32.524Z,5.48
2017-05-19T14:36:01.760Z,5.72
2017-05-19T14:38:29.405Z,5.02
2017-05-19T14:40:57.186Z,7.38
2017-05-19T14:43:24.875Z,6.80
2017-05-19T14:45:52.873Z,5.78
2017-05-19T14:48:20.522Z,5.20
2017-05-19T14:50:48.193Z,5.82
2017-05-19T14:53:16.600Z,5.32
2017-05-19T14:55:44.992Z,5.68
2017-05-19T14:58:12.989Z,5.22
2017-05-19T15:00:40.630Z,6.02
2017-05-19T15:03:08.280Z,5.02
2017-05-19T15:05:36.616Z,5.20
2017-05-19T15:08:04.239Z,5.04
2017-05-19T15:10:32.645Z,5.50
2017-05-19T15:13:01.806Z,5.60
2017-05-19T15:15:30.210Z,7.00
2017-05-19T15:17:57.858Z,4.46
2017-05-19T15:20:25.581Z,5.24
2017-05-19T15:22:53.597Z,5.26
2017-05-19T15:25:21.273Z,5.16
2017-05-19T15:27:48.908Z,5.72
2017-05-19T15:30:16.550Z,5.28
2017-05-19T15:32:44.162Z,5.00
2017-05-19T15:35:11.816Z,5.84
2017-05-19T15:37:39.486Z,5.90
2017-05-19T15:40:07.168Z,5.60
2017-05-19T15:42:35.594Z,8.00
2017-05-19T15:45:03.254Z,5.12
2017-05-19T15:47:30.905Z,6.06
2017-05-19T15:49:58.828Z,4.50
2017-05-19T15:52:27.212Z,5.24
2017-05-19T15:54:54.847Z,5.68
2017-05-19T15:57:22.500Z,5.66
2017-05-19T15:59:50.131Z,5.88
2017-05-19T16:02:18.557Z,5.90
2017-05-19T16:04:46.178Z,7.00
2017-05-19T16:07:14.109Z,5.72
2017-05-19T16:09:41.733Z,5.06
2017-05-19T16:12:10.113Z,5.50
2017-05-19T16:14:37.775Z,7.92
2017-05-19T16:17:05.405Z,4.88
2017-05-19T16:19:33.084Z,5.72
2017-05-19T16:22:00.720Z,5.78
2017-05-19T16:24:28.370Z,6.48
2017-05-19T16:26:55.990Z,6.28
2017-05-19T16:29:23.633Z,5.68
2017-05-19T16:31:51.248Z,5.30
2017-05-19T16:34:19.656Z,5.90
2017-05-19T16:37:27.444Z,5.74
2017-05-19T16:39:55.064Z,9.96
2017-05-19T16:42:22.694Z,7.88
2017-05-19T16:44:51.125Z,7.86
2017-05-19T16:47:18.766Z,8.24
2017-05-19T16:49:46.805Z,7.24
2017-05-19T16:52:14.437Z,7.80
2017-05-19T16:54:42.058Z,5.76
2017-05-19T16:57:09.733Z,6.16
2017-05-19T16:59:37.347Z,6.06
2017-05-19T17:02:06.146Z,7.22
2017-05-19T17:04:34.994Z,6.00
2017-05-19T17:07:03.133Z,6.72
2017-05-19T17:09:30.845Z,5.90
2017-05-19T17:11:58.533Z,8.44
2017-05-19T17:14:26.550Z,5.42
2017-05-19T17:16:54.929Z,5.12
2017-05-19T17:19:22.574Z,5.00
2017-05-19T17:21:50.243Z,5.64
2017-05-19T17:24:18.647Z,6.18
2017-05-19T17:26:46.645Z,5.46
2017-05-19T17:29:14.318Z,6.42
2017-05-19T17:31:41.950Z,5.52
2017-05-19T17:34:09.594Z,5.82
2017-05-19T17:36:37.217Z,5.60
2017-05-19T17:39:05.150Z,5.70
2017-05-19T17:41:32.772Z,6.48
2017-05-19T17:44:01.160Z,6.30
2017-05-19T17:46:28.829Z,6.22
2017-05-19T17:48:56.696Z,6.42
2017-05-19T17:51:25.449Z,5.42
2017-05-19T17:53:53.098Z,4.80
2017-05-19T17:56:20.748Z,5.50
2017-05-19T17:58:48.417Z,5.86
2017-05-19T18:01:16.045Z,5.96
2017-05-19T18:03:44.122Z,6.32
2017-05-19T18:06:11.755Z,5.14
2017-05-19T18:08:39.420Z,7.62
2017-05-19T18:11:07.829Z,5.86
2017-05-19T18:13:35.450Z,5.66
2017-05-19T18:16:04.251Z,5.80
2017-05-19T18:18:31.885Z,5.38
2017-05-19T18:21:00.269Z,5.54
2017-05-19T18:23:27.914Z,6.14
2017-05-19T18:25:55.550Z,6.72
2017-05-19T18:28:23.524Z,25.32
2017-05-19T18:30:51.144Z,17.42
2017-05-19T18:33:18.893Z,11.20
2017-05-19T18:35:46.536Z,11.72
2017-05-19T18:38:14.916Z,8.34
2017-05-19T18:40:43.680Z,6.20
2017-05-19T18:43:12.065Z,6.72
2017-05-19T18:45:39.687Z,6.18
2017-05-19T18:48:07.333Z,7.58
2017-05-19T18:50:35.712Z,14.96
2017-05-19T18:53:03.753Z,14.52
2017-05-19T18:55:32.133Z,5.32
2017-05-19T18:57:59.757Z,7.48
2017-05-19T19:00:27.398Z,6.12
2017-05-19T19:02:55.795Z,8.04
2017-05-19T19:05:23.832Z,7.08
2017-05-19T19:07:51.452Z,6.66
2017-05-19T19:10:19.077Z,8.02
2017-05-19T19:12:47.493Z,8.46
2017-05-19T19:15:15.135Z,8.04
2017-05-19T19:17:43.084Z,9.18
2017-05-19T19:20:10.716Z,7.38
2017-05-19T19:22:38.397Z,7.60
2017-05-19T19:25:06.050Z,8.38
2017-05-19T19:27:33.677Z,7.90
2017-05-19T19:30:01.644Z,7.18
2017-05-19T19:32:30.265Z,7.48
2017-05-19T19:34:58.670Z,7.54
2017-05-19T19:37:26.319Z,6.62
2017-05-19T19:39:53.949Z,8.24
2017-05-19T19:42:22.640Z,13.44
2017-05-19T19:44:50.329Z,12.78
2017-05-19T19:47:17.964Z,9.78
2017-05-19T19:49:45.617Z,9.86
2017-05-19T19:52:13.250Z,7.34
2017-05-19T19:54:41.271Z,8.76
2017-05-19T19:57:09.665Z,7.56
2017-05-19T19:59:37.301Z,8.08
2017-05-19T20:02:04.945Z,7.42
2017-05-19T20:04:32.585Z,8.50
2017-05-19T20:07:00.584Z,7.46
2017-05-19T20:09:28.262Z,7.68
2017-05-19T20:11:55.903Z,7.67
2017-05-19T20:14:24.351Z,8.55
2017-05-19T20:16:51.976Z,9.88
2017-05-19T20:19:19.644Z,8.50
2017-05-19T20:21:47.325Z,8.45
2017-05-19T20:24:17.225Z,8.10
2017-05-19T20:26:44.896Z,7.32
2017-05-19T20:29:12.522Z,9.64
2017-05-19T20:31:40.950Z,8.73
2017-05-19T20:34:10.336Z,7.97
2017-05-19T20:36:38.158Z,8.07
2017-05-19T20:39:05.810Z,6.37
2017-05-19T20:41:34.664Z,8.70
2017-05-19T20:44:02.331Z,8.25
2017-05-19T20:46:30.750Z,7.05
2017-05-19T20:48:58.812Z,7.30
2017-05-19T20:51:26.506Z,8.72
2017-05-19T20:53:54.202Z,8.95
2017-05-19T20:56:21.892Z,9.40
2017-05-19T20:58:49.541Z,8.42
2017-05-19T21:01:17.557Z,8.55
2017-05-19T21:03:45.210Z,8.97
2017-05-19T21:06:13.624Z,8.78
2017-05-19T21:08:41.344Z,8.40
2017-05-19T21:11:08.994Z,10.50
2017-05-19T21:13:37.053Z,9.63
2017-05-19T21:16:05.470Z,11.28
2017-05-19T21:18:33.167Z,10.88
2017-05-19T21:21:00.904Z,11.22
2017-05-19T21:23:29.342Z,13.78
2017-05-19T21:25:57.315Z,12.98
2017-05-19T21:28:25.085Z,15.35
2017-05-19T21:30:52.759Z,15.75
2017-05-19T21:33:20.481Z,15.05
2017-05-19T21:35:48.133Z,12.27
2017-05-19T21:38:16.166Z,11.37
2017-05-19T21:40:43.855Z,12.03
2017-05-19T21:43:12.300Z,11.07
2017-05-19T21:45:40.040Z,10.40
2017-05-19T21:48:07.762Z,8.80
2017-05-19T21:50:35.817Z,7.92
2017-05-19T21:53:03.604Z,7.48
2017-05-19T21:55:32.242Z,7.30
2017-05-19T21:57:59.949Z,5.77
2017-05-19T22:00:27.588Z,5.97
2017-05-19T22:02:55.739Z,5.32
2017-05-19T22:05:23.588Z,5.95
2017-05-19T22:07:52.112Z,4.55
2017-05-19T22:10:19.856Z,6.27
2017-05-19T22:12:47.670Z,4.82
2017-05-19T22:15:16.541Z,4.67
2017-05-19T22:17:44.306Z,3.88
2017-05-19T22:20:11.941Z,3.90
2017-05-19T22:22:39.794Z,3.72
2017-05-19T22:25:08.247Z,3.70
2017-05-19T22:27:36.994Z,3.83
2017-05-19T22:30:04.802Z,3.00
2017-05-19T22:32:32.465Z,5.68
2017-05-19T22:35:01.060Z,2.65
2017-05-19T22:37:28.904Z,2.62
2017-05-19T22:39:57.103Z,6.05
2017-05-19T22:42:24.812Z,2.37
2017-05-19T22:44:52.513Z,2.03
2017-05-19T22:47:20.218Z,2.40
2017-05-19T22:49:48.017Z,3.40
2017-05-19T22:52:15.999Z,3.02
2017-05-19T22:54:43.647Z,7.20
2017-05-19T22:57:12.226Z,3.12
2017-05-19T22:59:40.660Z,3.05
2017-05-19T23:02:08.298Z,3.20
2017-05-19T23:04:36.271Z,4.17
2017-05-19T23:07:04.767Z,2.72
2017-05-19T23:09:32.409Z,3.17
2017-05-19T23:12:00.073Z,4.00
2017-05-19T23:14:27.735Z,4.48
2017-05-19T23:16:56.459Z,4.00
2017-05-19T23:19:25.066Z,3.57
2017-05-19T23:21:52.746Z,3.40
2017-05-19T23:24:21.185Z,3.78
2017-05-19T23:26:48.836Z,3.95
2017-05-19T23:29:16.842Z,3.52
2017-05-19T23:31:44.500Z,3.53
2017-05-19T23:34:12.192Z,3.18
2017-05-19T23:36:40.641Z,3.30
2017-05-19T23:39:08.307Z,2.73
2017-05-19T23:41:36.304Z,2.90
2017-05-19T23:44:03.953Z,3.38
2017-05-19T23:46:31.592Z,3.78
2017-05-19T23:48:59.262Z,2.93
2017-05-19T23:51:26.917Z,2.95
2017-05-19T23:53:54.880Z,2.45
2017-05-19T23:56:22.521Z,2.40
2017-05-19T23:58:50.951Z,2.42
